sensor_id;sensor_type;location;lat;lon;timestamp;P1;durP1;ratioP1;P2;durP2;ratioP2
57233;SDS011;43090;52.604;13.318;2023-05-16T00:01:38;10.75;;;6.30;;
57233;SDS011;43090;52.604;13.318;2023-05-16T00:04:05;9.13;;;6.78;;
57233;SDS011;43090;52.604;13.318;2023-05-16T00:06:32;13.90;;;6.53;;
57233;SDS011;43090;52.604;13.318;2023-05-16T00:09:00;19.55;;;6.10;;
57233;SDS011;43090;52.604;13.318;2023-05-16T00:13:53;8.55;;;6.53;;
57233;SDS011;43090;52.604;13.318;2023-05-16T00:16:20;9.25;;;6.45;;
57233;SDS011;43090;52.604;13.318;2023-05-16T00:18:47;13.27;;;6.80;;
57233;SDS011;43090;52.604;13.318;2023-05-16T00:21:13;15.27;;;6.78;;
57233;SDS011;43090;52.604;13.318;2023-05-16T00:23:40;11.50;;;6.90;;
57233;SDS011;43090;52.604;13.318;2023-05-16T00:26:07;11.27;;;6.20;;
57233;SDS011;43090;52.604;13.318;2023-05-16T00:28:33;11.40;;;6.78;;
57233;SDS011;43090;52.604;13.318;2023-05-16T00:31:00;10.88;;;6.70;;
57233;SDS011;43090;52.604;13.318;2023-05-16T00:33:26;12.02;;;6.88;;
57233;SDS011;43090;52.604;13.318;2023-05-16T00:35:53;10.38;;;6.82;;
57233;SDS011;43090;52.604;13.318;2023-05-16T00:38:19;15.27;;;6.45;;
57233;SDS011;43090;52.604;13.318;2023-05-16T00:40:46;9.40;;;6.75;;
57233;SDS011;43090;52.604;13.318;2023-05-16T00:43:13;16.65;;;7.13;;
57233;SDS011;43090;52.604;13.318;2023-05-16T00:45:40;11.98;;;8.27;;
57233;SDS011;43090;52.604;13.318;2023-05-16T00:48:06;13.25;;;7.72;;
57233;SDS011;43090;52.604;13.318;2023-05-16T00:50:35;10.57;;;7.35;;
57233;SDS011;43090;52.604;13.318;2023-05-16T00:53:02;14.02;;;8.32;;
57233;SDS011;43090;52.604;13.318;2023-05-16T00:55:29;13.57;;;9.23;;
57233;SDS011;43090;52.604;13.318;2023-05-16T01:00:23;17.27;;;9.40;;
57233;SDS011;43090;52.604;13.318;2023-05-16T01:02:50;18.45;;;10.15;;
57233;SDS011;43090;52.604;13.318;2023-05-16T01:05:19;17.70;;;10.77;;
57233;SDS011;43090;52.604;13.318;2023-05-16T01:07:46;17.25;;;10.20;;
57233;SDS011;43090;52.604;13.318;2023-05-16T01:10:13;23.67;;;10.65;;
57233;SDS011;43090;52.604;13.318;2023-05-16T01:12:41;14.55;;;10.57;;
57233;SDS011;43090;52.604;13.318;2023-05-16T01:15:29;16.98;;;10.77;;
57233;SDS011;43090;52.604;13.318;2023-05-16T01:18:02;22.52;;;11.90;;
57233;SDS011;43090;52.604;13.318;2023-05-16T01:28:48;17.77;;;13.35;;
57233;SDS011;43090;52.604;13.318;2023-05-16T01:31:17;20.88;;;14.00;;
57233;SDS011;43090;52.604;13.318;2023-05-16T01:33:44;23.63;;;12.77;;
57233;SDS011;43090;52.604;13.318;2023-05-16T01:51:38;27.40;;;13.98;;
57233;SDS011;43090;52.604;13.318;2023-05-16T01:54:08;21.67;;;14.40;;
57233;SDS011;43090;52.604;13.318;2023-05-16T01:56:37;26.95;;;13.45;;
57233;SDS011;43090;52.604;13.318;2023-05-16T01:59:04;27.63;;;14.10;;
57233;SDS011;43090;52.604;13.318;2023-05-16T02:01:33;21.38;;;12.77;;
57233;SDS011;43090;52.604;13.318;2023-05-16T02:04:00;24.85;;;14.00;;
57233;SDS011;43090;52.604;13.318;2023-05-16T02:06:27;21.83;;;12.85;;
57233;SDS011;43090;52.604;13.318;2023-05-16T02:08:53;27.40;;;13.65;;
57233;SDS011;43090;52.604;13.318;2023-05-16T02:11:20;23.63;;;13.95;;
57233;SDS011;43090;52.604;13.318;2023-05-16T02:13:47;27.17;;;14.00;;
57233;SDS011;43090;52.604;13.318;2023-05-16T02:16:13;17.17;;;11.82;;
57233;SDS011;43090;52.604;13.318;2023-05-16T02:18:40;21.95;;;13.30;;
57233;SDS011;43090;52.604;13.318;2023-05-16T02:21:07;21.92;;;11.65;;
57233;SDS011;43090;52.604;13.318;2023-05-16T02:23:34;20.05;;;11.98;;
57233;SDS011;43090;52.604;13.318;2023-05-16T02:28:27;20.77;;;12.45;;
57233;SDS011;43090;52.604;13.318;2023-05-16T02:30:57;22.67;;;12.30;;
57233;SDS011;43090;52.604;13.318;2023-05-16T02:33:24;20.40;;;12.10;;
57233;SDS011;43090;52.604;13.318;2023-05-16T02:35:52;21.30;;;12.75;;
57233;SDS011;43090;52.604;13.318;2023-05-16T02:38:20;23.63;;;11.73;;
57233;SDS011;43090;52.604;13.318;2023-05-16T02:40:47;21.40;;;12.57;;
57233;SDS011;43090;52.604;13.318;2023-05-16T02:43:13;24.83;;;13.55;;
57233;SDS011;43090;52.604;13.318;2023-05-16T02:45:40;25.00;;;13.18;;
57233;SDS011;43090;52.604;13.318;2023-05-16T02:48:07;30.00;;;13.90;;
57233;SDS011;43090;52.604;13.318;2023-05-16T02:50:34;22.20;;;14.23;;
57233;SDS011;43090;52.604;13.318;2023-05-16T02:53:00;19.45;;;12.52;;
57233;SDS011;43090;52.604;13.318;2023-05-16T02:55:27;27.83;;;14.65;;
57233;SDS011;43090;52.604;13.318;2023-05-16T03:00:20;23.17;;;13.48;;
57233;SDS011;43090;52.604;13.318;2023-05-16T03:02:47;23.30;;;13.40;;
57233;SDS011;43090;52.604;13.318;2023-05-16T03:05:14;27.00;;;14.45;;
57233;SDS011;43090;52.604;13.318;2023-05-16T03:07:40;27.08;;;15.85;;
57233;SDS011;43090;52.604;13.318;2023-05-16T03:10:07;29.20;;;14.27;;
57233;SDS011;43090;52.604;13.318;2023-05-16T03:12:34;22.40;;;15.07;;
57233;SDS011;43090;52.604;13.318;2023-05-16T03:15:00;36.35;;;15.52;;
57233;SDS011;43090;52.604;13.318;2023-05-16T03:17:27;33.88;;;16.20;;
57233;SDS011;43090;52.604;13.318;2023-05-16T03:19:54;23.33;;;14.13;;
57233;SDS011;43090;52.604;13.318;2023-05-16T03:22:20;21.48;;;14.52;;
57233;SDS011;43090;52.604;13.318;2023-05-16T03:24:47;22.60;;;14.52;;
57233;SDS011;43090;52.604;13.318;2023-05-16T03:27:13;29.48;;;16.83;;
57233;SDS011;43090;52.604;13.318;2023-05-16T03:29:40;26.08;;;15.85;;
57233;SDS011;43090;52.604;13.318;2023-05-16T03:32:06;26.58;;;13.85;;
57233;SDS011;43090;52.604;13.318;2023-05-16T03:34:34;31.17;;;14.98;;
57233;SDS011;43090;52.604;13.318;2023-05-16T03:37:01;25.35;;;15.20;;
57233;SDS011;43090;52.604;13.318;2023-05-16T03:39:27;27.08;;;16.23;;
57233;SDS011;43090;52.604;13.318;2023-05-16T03:41:57;22.35;;;15.27;;
57233;SDS011;43090;52.604;13.318;2023-05-16T03:44:23;24.35;;;16.05;;
57233;SDS011;43090;52.604;13.318;2023-05-16T03:46:50;26.60;;;16.45;;
57233;SDS011;43090;52.604;13.318;2023-05-16T03:49:18;26.42;;;15.02;;
57233;SDS011;43090;52.604;13.318;2023-05-16T03:51:46;26.83;;;16.73;;
57233;SDS011;43090;52.604;13.318;2023-05-16T03:54:12;33.42;;;18.23;;
57233;SDS011;43090;52.604;13.318;2023-05-16T03:56:40;22.85;;;15.65;;
57233;SDS011;43090;52.604;13.318;2023-05-16T03:59:06;28.73;;;16.65;;
57233;SDS011;43090;52.604;13.318;2023-05-16T04:01:33;24.33;;;15.05;;
57233;SDS011;43090;52.604;13.318;2023-05-16T04:03:59;27.50;;;17.75;;
57233;SDS011;43090;52.604;13.318;2023-05-16T04:06:26;36.05;;;18.98;;
57233;SDS011;43090;52.604;13.318;2023-05-16T04:08:52;28.92;;;17.55;;
57233;SDS011;43090;52.604;13.318;2023-05-16T04:11:19;30.13;;;18.50;;
57233;SDS011;43090;52.604;13.318;2023-05-16T04:13:46;26.73;;;16.70;;
57233;SDS011;43090;52.604;13.318;2023-05-16T04:16:13;30.55;;;17.23;;
57233;SDS011;43090;52.604;13.318;2023-05-16T04:18:39;29.33;;;17.00;;
57233;SDS011;43090;52.604;13.318;2023-05-16T04:21:06;28.20;;;17.15;;
57233;SDS011;43090;52.604;13.318;2023-05-16T04:23:35;28.15;;;17.67;;
57233;SDS011;43090;52.604;13.318;2023-05-16T04:26:02;29.67;;;17.23;;
57233;SDS011;43090;52.604;13.318;2023-05-16T04:28:31;28.33;;;18.08;;
57233;SDS011;43090;52.604;13.318;2023-05-16T04:30:58;32.97;;;19.38;;
57233;SDS011;43090;52.604;13.318;2023-05-16T04:33:24;26.05;;;16.35;;
57233;SDS011;43090;52.604;13.318;2023-05-16T04:35:51;29.00;;;16.85;;
57233;SDS011;43090;52.604;13.318;2023-05-16T04:38:18;31.45;;;17.20;;
57233;SDS011;43090;52.604;13.318;2023-05-16T04:40:45;27.75;;;15.75;;
57233;SDS011;43090;52.604;13.318;2023-05-16T04:43:11;29.75;;;17.40;;
57233;SDS011;43090;52.604;13.318;2023-05-16T04:45:38;26.40;;;16.75;;
57233;SDS011;43090;52.604;13.318;2023-05-16T04:48:04;38.13;;;18.17;;
57233;SDS011;43090;52.604;13.318;2023-05-16T04:50:31;32.40;;;17.85;;
57233;SDS011;43090;52.604;13.318;2023-05-16T04:52:58;25.23;;;17.17;;
57233;SDS011;43090;52.604;13.318;2023-05-16T04:57:52;29.63;;;16.23;;
57233;SDS011;43090;52.604;13.318;2023-05-16T05:00:18;32.70;;;18.08;;
57233;SDS011;43090;52.604;13.318;2023-05-16T05:02:45;28.75;;;18.30;;
57233;SDS011;43090;52.604;13.318;2023-05-16T05:05:12;38.83;;;18.25;;
57233;SDS011;43090;52.604;13.318;2023-05-16T05:07:39;27.30;;;15.57;;
57233;SDS011;43090;52.604;13.318;2023-05-16T05:10:06;28.33;;;15.43;;
57233;SDS011;43090;52.604;13.318;2023-05-16T05:12:33;22.13;;;15.13;;
57233;SDS011;43090;52.604;13.318;2023-05-16T05:15:00;25.00;;;15.55;;
57233;SDS011;43090;52.604;13.318;2023-05-16T05:17:30;25.13;;;14.63;;
57233;SDS011;43090;52.604;13.318;2023-05-16T05:19:56;22.77;;;14.20;;
57233;SDS011;43090;52.604;13.318;2023-05-16T05:22:23;24.80;;;14.80;;
57233;SDS011;43090;52.604;13.318;2023-05-16T05:24:50;24.42;;;13.80;;
57233;SDS011;43090;52.604;13.318;2023-05-16T05:27:16;31.13;;;14.20;;
57233;SDS011;43090;52.604;13.318;2023-05-16T05:29:43;21.40;;;13.82;;
57233;SDS011;43090;52.604;13.318;2023-05-16T05:32:09;19.90;;;13.80;;
57233;SDS011;43090;52.604;13.318;2023-05-16T05:34:36;25.52;;;15.18;;
57233;SDS011;43090;52.604;13.318;2023-05-16T05:37:03;27.70;;;14.13;;
57233;SDS011;43090;52.604;13.318;2023-05-16T05:39:29;18.00;;;12.65;;
57233;SDS011;43090;52.604;13.318;2023-05-16T05:44:25;26.80;;;13.60;;
57233;SDS011;43090;52.604;13.318;2023-05-16T05:46:52;30.92;;;13.52;;
57233;SDS011;43090;52.604;13.318;2023-05-16T05:49:19;39.47;;;13.43;;
57233;SDS011;43090;52.604;13.318;2023-05-16T05:51:45;30.13;;;13.90;;
57233;SDS011;43090;52.604;13.318;2023-05-16T05:56:39;19.33;;;11.45;;
57233;SDS011;43090;52.604;13.318;2023-05-16T05:59:05;19.75;;;10.65;;
57233;SDS011;43090;52.604;13.318;2023-05-16T06:01:31;19.02;;;10.52;;
57233;SDS011;43090;52.604;13.318;2023-05-16T06:06:27;18.80;;;10.57;;
57233;SDS011;43090;52.604;13.318;2023-05-16T06:08:54;20.33;;;10.70;;
57233;SDS011;43090;52.604;13.318;2023-05-16T06:11:20;16.20;;;10.50;;
57233;SDS011;43090;52.604;13.318;2023-05-16T06:13:47;20.58;;;9.95;;
57233;SDS011;43090;52.604;13.318;2023-05-16T06:16:14;20.83;;;10.75;;
57233;SDS011;43090;52.604;13.318;2023-05-16T06:21:07;17.00;;;9.57;;
57233;SDS011;43090;52.604;13.318;2023-05-16T06:23:34;18.52;;;9.98;;
57233;SDS011;43090;52.604;13.318;2023-05-16T06:26:01;15.40;;;9.45;;
57233;SDS011;43090;52.604;13.318;2023-05-16T06:28:28;27.45;;;10.05;;
57233;SDS011;43090;52.604;13.318;2023-05-16T06:33:22;24.10;;;8.90;;
57233;SDS011;43090;52.604;13.318;2023-05-16T06:35:48;18.77;;;9.27;;
57233;SDS011;43090;52.604;13.318;2023-05-16T06:38:15;18.02;;;8.95;;
57233;SDS011;43090;52.604;13.318;2023-05-16T06:40:44;20.27;;;8.65;;
57233;SDS011;43090;52.604;13.318;2023-05-16T06:45:37;13.32;;;7.43;;
57233;SDS011;43090;52.604;13.318;2023-05-16T06:48:05;14.10;;;7.63;;
57233;SDS011;43090;52.604;13.318;2023-05-16T06:50:33;16.23;;;8.05;;
57233;SDS011;43090;52.604;13.318;2023-05-16T06:53:00;15.23;;;7.07;;
57233;SDS011;43090;52.604;13.318;2023-05-16T06:55:29;13.15;;;7.60;;
57233;SDS011;43090;52.604;13.318;2023-05-16T06:57:56;10.70;;;6.82;;
57233;SDS011;43090;52.604;13.318;2023-05-16T07:00:22;16.70;;;7.50;;
57233;SDS011;43090;52.604;13.318;2023-05-16T07:02:50;12.73;;;6.80;;
57233;SDS011;43090;52.604;13.318;2023-05-16T07:05:16;16.92;;;7.07;;
57233;SDS011;43090;52.604;13.318;2023-05-16T07:07:43;14.88;;;7.13;;
57233;SDS011;43090;52.604;13.318;2023-05-16T07:10:10;12.05;;;6.75;;
57233;SDS011;43090;52.604;13.318;2023-05-16T07:15:06;10.88;;;5.70;;
57233;SDS011;43090;52.604;13.318;2023-05-16T07:17:33;12.40;;;5.78;;
57233;SDS011;43090;52.604;13.318;2023-05-16T07:20:00;13.75;;;6.15;;
57233;SDS011;43090;52.604;13.318;2023-05-16T07:22:30;12.55;;;5.20;;
57233;SDS011;43090;52.604;13.318;2023-05-16T07:24:56;12.93;;;5.57;;
57233;SDS011;43090;52.604;13.318;2023-05-16T07:27:26;13.48;;;5.40;;
57233;SDS011;43090;52.604;13.318;2023-05-16T07:29:53;15.05;;;5.13;;
57233;SDS011;43090;52.604;13.318;2023-05-16T07:32:19;14.15;;;4.95;;
57233;SDS011;43090;52.604;13.318;2023-05-16T07:37:12;16.92;;;4.43;;
57233;SDS011;43090;52.604;13.318;2023-05-16T07:39:41;9.73;;;3.50;;
57233;SDS011;43090;52.604;13.318;2023-05-16T07:42:07;10.90;;;4.00;;
57233;SDS011;43090;52.604;13.318;2023-05-16T07:44:34;9.48;;;4.15;;
57233;SDS011;43090;52.604;13.318;2023-05-16T07:47:01;7.40;;;3.80;;
57233;SDS011;43090;52.604;13.318;2023-05-16T07:49:28;7.03;;;3.92;;
57233;SDS011;43090;52.604;13.318;2023-05-16T07:51:54;9.30;;;3.60;;
57233;SDS011;43090;52.604;13.318;2023-05-16T07:54:21;7.70;;;3.17;;
57233;SDS011;43090;52.604;13.318;2023-05-16T07:56:47;5.75;;;2.80;;
57233;SDS011;43090;52.604;13.318;2023-05-16T07:59:14;9.30;;;3.25;;
57233;SDS011;43090;52.604;13.318;2023-05-16T08:04:07;7.18;;;3.00;;
57233;SDS011;43090;52.604;13.318;2023-05-16T08:06:33;6.82;;;3.38;;
57233;SDS011;43090;52.604;13.318;2023-05-16T08:09:00;9.52;;;3.28;;
57233;SDS011;43090;52.604;13.318;2023-05-16T08:11:27;10.23;;;3.30;;
57233;SDS011;43090;52.604;13.318;2023-05-16T08:16:20;9.63;;;2.55;;
57233;SDS011;43090;52.604;13.318;2023-05-16T08:18:46;8.90;;;2.90;;
57233;SDS011;43090;52.604;13.318;2023-05-16T08:21:13;7.82;;;2.53;;
57233;SDS011;43090;52.604;13.318;2023-05-16T08:23:41;3.30;;;2.20;;
57233;SDS011;43090;52.604;13.318;2023-05-16T08:26:08;6.43;;;2.20;;
57233;SDS011;43090;52.604;13.318;2023-05-16T08:28:35;8.05;;;2.53;;
57233;SDS011;43090;52.604;13.318;2023-05-16T08:31:02;8.93;;;2.42;;
57233;SDS011;43090;52.604;13.318;2023-05-16T08:35:55;10.15;;;2.47;;
57233;SDS011;43090;52.604;13.318;2023-05-16T08:38:22;7.60;;;2.25;;
57233;SDS011;43090;52.604;13.318;2023-05-16T08:40:48;10.13;;;2.45;;
57233;SDS011;43090;52.604;13.318;2023-05-16T08:45:42;4.55;;;1.80;;
57233;SDS011;43090;52.604;13.318;2023-05-16T08:53:04;7.65;;;2.42;;
57233;SDS011;43090;52.604;13.318;2023-05-16T08:55:33;7.05;;;2.33;;
57233;SDS011;43090;52.604;13.318;2023-05-16T08:58:02;6.60;;;1.80;;
57233;SDS011;43090;52.604;13.318;2023-05-16T09:00:31;10.43;;;1.85;;
57233;SDS011;43090;52.604;13.318;2023-05-16T09:05:25;8.63;;;1.80;;
57233;SDS011;43090;52.604;13.318;2023-05-16T09:07:53;4.65;;;1.70;;
57233;SDS011;43090;52.604;13.318;2023-05-16T09:10:20;7.50;;;1.77;;
57233;SDS011;43090;52.604;13.318;2023-05-16T09:12:46;9.60;;;1.60;;
57233;SDS011;43090;52.604;13.318;2023-05-16T09:15:13;11.07;;;2.92;;
57233;SDS011;43090;52.604;13.318;2023-05-16T09:17:42;11.18;;;2.28;;
57233;SDS011;43090;52.604;13.318;2023-05-16T09:20:11;5.82;;;1.55;;
57233;SDS011;43090;52.604;13.318;2023-05-16T09:22:49;5.38;;;1.90;;
57233;SDS011;43090;52.604;13.318;2023-05-16T09:25:18;7.70;;;2.13;;
57233;SDS011;43090;52.604;13.318;2023-05-16T09:27:59;6.97;;;1.70;;
57233;SDS011;43090;52.604;13.318;2023-05-16T09:30:29;7.63;;;2.20;;
57233;SDS011;43090;52.604;13.318;2023-05-16T09:32:57;15.43;;;2.63;;
57233;SDS011;43090;52.604;13.318;2023-05-16T09:35:25;5.95;;;1.75;;
57233;SDS011;43090;52.604;13.318;2023-05-16T09:37:55;10.90;;;1.80;;
57233;SDS011;43090;52.604;13.318;2023-05-16T09:40:22;7.28;;;1.55;;
57233;SDS011;43090;52.604;13.318;2023-05-16T09:43:02;7.55;;;1.38;;
57233;SDS011;43090;52.604;13.318;2023-05-16T09:45:31;7.28;;;1.40;;
57233;SDS011;43090;52.604;13.318;2023-05-16T09:48:00;6.50;;;1.60;;
57233;SDS011;43090;52.604;13.318;2023-05-16T09:50:34;7.55;;;1.77;;
57233;SDS011;43090;52.604;13.318;2023-05-16T09:53:02;11.32;;;1.73;;
57233;SDS011;43090;52.604;13.318;2023-05-16T09:55:30;8.23;;;1.90;;
57233;SDS011;43090;52.604;13.318;2023-05-16T09:57:57;9.45;;;1.80;;
57233;SDS011;43090;52.604;13.318;2023-05-16T10:00:30;3.75;;;1.50;;
57233;SDS011;43090;52.604;13.318;2023-05-16T10:02:59;12.48;;;1.90;;
57233;SDS011;43090;52.604;13.318;2023-05-16T10:05:31;9.65;;;2.38;;
57233;SDS011;43090;52.604;13.318;2023-05-16T10:07:58;14.50;;;2.55;;
57233;SDS011;43090;52.604;13.318;2023-05-16T10:10:25;7.90;;;2.20;;
57233;SDS011;43090;52.604;13.318;2023-05-16T10:12:52;5.78;;;1.85;;
57233;SDS011;43090;52.604;13.318;2023-05-16T10:15:23;13.27;;;2.53;;
57233;SDS011;43090;52.604;13.318;2023-05-16T10:17:51;12.70;;;2.28;;
57233;SDS011;43090;52.604;13.318;2023-05-16T10:20:22;10.18;;;2.13;;
57233;SDS011;43090;52.604;13.318;2023-05-16T10:22:48;10.57;;;2.22;;
57233;SDS011;43090;52.604;13.318;2023-05-16T10:25:25;14.73;;;3.47;;
57233;SDS011;43090;52.604;13.318;2023-05-16T10:27:58;8.98;;;2.38;;
57233;SDS011;43090;52.604;13.318;2023-05-16T10:30:25;9.43;;;2.42;;
57233;SDS011;43090;52.604;13.318;2023-05-16T10:35:19;7.05;;;2.35;;
57233;SDS011;43090;52.604;13.318;2023-05-16T10:37:47;9.52;;;2.28;;
57233;SDS011;43090;52.604;13.318;2023-05-16T10:40:15;9.30;;;2.13;;
57233;SDS011;43090;52.604;13.318;2023-05-16T10:42:44;13.95;;;2.40;;
57233;SDS011;43090;52.604;13.318;2023-05-16T10:45:21;6.50;;;2.05;;
57233;SDS011;43090;52.604;13.318;2023-05-16T10:47:54;15.80;;;3.17;;
57233;SDS011;43090;52.604;13.318;2023-05-16T10:50:43;13.43;;;2.38;;
57233;SDS011;43090;52.604;13.318;2023-05-16T10:53:18;11.10;;;2.72;;
57233;SDS011;43090;52.604;13.318;2023-05-16T10:55:49;9.63;;;2.60;;
57233;SDS011;43090;52.604;13.318;2023-05-16T11:06:22;12.07;;;2.35;;
57233;SDS011;43090;52.604;13.318;2023-05-16T11:09:24;19.67;;;2.38;;
57233;SDS011;43090;52.604;13.318;2023-05-16T11:11:57;9.15;;;1.92;;
57233;SDS011;43090;52.604;13.318;2023-05-16T11:14:25;12.00;;;2.70;;
57233;SDS011;43090;52.604;13.318;2023-05-16T11:17:01;9.80;;;2.08;;
57233;SDS011;43090;52.604;13.318;2023-05-16T11:19:48;10.07;;;1.75;;
57233;SDS011;43090;52.604;13.318;2023-05-16T11:28:00;11.88;;;1.90;;
57233;SDS011;43090;52.604;13.318;2023-05-16T11:30:12;11.55;;;2.25;;
57233;SDS011;43090;52.604;13.318;2023-05-16T11:32:41;14.10;;;2.75;;
57233;SDS011;43090;52.604;13.318;2023-05-16T11:35:10;13.65;;;2.78;;
57233;SDS011;43090;52.604;13.318;2023-05-16T11:37:40;14.75;;;2.50;;
57233;SDS011;43090;52.604;13.318;2023-05-16T11:40:11;9.77;;;2.25;;
57233;SDS011;43090;52.604;13.318;2023-05-16T11:42:39;10.27;;;2.25;;
57233;SDS011;43090;52.604;13.318;2023-05-16T11:45:13;9.95;;;2.40;;
57233;SDS011;43090;52.604;13.318;2023-05-16T11:47:42;12.82;;;2.53;;
57233;SDS011;43090;52.604;13.318;2023-05-16T11:50:11;13.07;;;2.88;;
57233;SDS011;43090;52.604;13.318;2023-05-16T11:52:38;11.25;;;2.00;;
57233;SDS011;43090;52.604;13.318;2023-05-16T11:55:05;13.32;;;2.47;;
57233;SDS011;43090;52.604;13.318;2023-05-16T11:57:39;17.85;;;2.47;;
57233;SDS011;43090;52.604;13.318;2023-05-16T12:00:14;17.65;;;2.58;;
57233;SDS011;43090;52.604;13.318;2023-05-16T12:02:43;10.52;;;2.00;;
57233;SDS011;43090;52.604;13.318;2023-05-16T12:05:14;9.25;;;1.83;;
57233;SDS011;43090;52.604;13.318;2023-05-16T12:07:57;11.57;;;2.25;;
57233;SDS011;43090;52.604;13.318;2023-05-16T12:10:25;9.85;;;1.92;;
57233;SDS011;43090;52.604;13.318;2023-05-16T12:12:54;10.30;;;2.40;;
57233;SDS011;43090;52.604;13.318;2023-05-16T12:15:21;12.43;;;2.00;;
57233;SDS011;43090;52.604;13.318;2023-05-16T12:17:48;12.63;;;3.45;;
57233;SDS011;43090;52.604;13.318;2023-05-16T12:20:16;8.50;;;1.73;;
57233;SDS011;43090;52.604;13.318;2023-05-16T12:22:43;10.77;;;1.77;;
57233;SDS011;43090;52.604;13.318;2023-05-16T12:25:26;18.45;;;2.30;;
57233;SDS011;43090;52.604;13.318;2023-05-16T12:27:55;11.95;;;1.63;;
57233;SDS011;43090;52.604;13.318;2023-05-16T12:30:24;11.57;;;2.20;;
57233;SDS011;43090;52.604;13.318;2023-05-16T12:32:56;12.20;;;2.10;;
57233;SDS011;43090;52.604;13.318;2023-05-16T12:35:24;14.65;;;2.78;;
57233;SDS011;43090;52.604;13.318;2023-05-16T12:37:55;9.85;;;1.83;;
57233;SDS011;43090;52.604;13.318;2023-05-16T12:42:58;15.23;;;1.98;;
57233;SDS011;43090;52.604;13.318;2023-05-16T12:45:25;14.20;;;2.05;;
57233;SDS011;43090;52.604;13.318;2023-05-16T12:47:53;11.05;;;2.72;;
57233;SDS011;43090;52.604;13.318;2023-05-16T12:50:20;13.30;;;2.53;;
57233;SDS011;43090;52.604;13.318;2023-05-16T12:55:20;12.63;;;1.80;;
57233;SDS011;43090;52.604;13.318;2023-05-16T12:57:48;15.90;;;1.80;;
57233;SDS011;43090;52.604;13.318;2023-05-16T13:00:16;10.73;;;2.25;;
57233;SDS011;43090;52.604;13.318;2023-05-16T13:02:45;14.10;;;2.30;;
57233;SDS011;43090;52.604;13.318;2023-05-16T13:05:12;11.98;;;2.05;;
57233;SDS011;43090;52.604;13.318;2023-05-16T13:10:07;11.43;;;2.40;;
57233;SDS011;43090;52.604;13.318;2023-05-16T13:12:37;13.13;;;1.88;;
57233;SDS011;43090;52.604;13.318;2023-05-16T13:15:05;9.73;;;1.55;;
57233;SDS011;43090;52.604;13.318;2023-05-16T13:17:36;7.90;;;1.92;;
57233;SDS011;43090;52.604;13.318;2023-05-16T13:20:04;8.90;;;1.70;;
57233;SDS011;43090;52.604;13.318;2023-05-16T13:22:35;6.47;;;1.17;;
57233;SDS011;43090;52.604;13.318;2023-05-16T13:25:02;11.38;;;2.03;;
57233;SDS011;43090;52.604;13.318;2023-05-16T13:27:35;12.73;;;2.58;;
57233;SDS011;43090;52.604;13.318;2023-05-16T13:30:02;6.05;;;1.40;;
57233;SDS011;43090;52.604;13.318;2023-05-16T13:32:29;14.80;;;1.77;;
57233;SDS011;43090;52.604;13.318;2023-05-16T13:34:56;11.68;;;2.25;;
57233;SDS011;43090;52.604;13.318;2023-05-16T13:37:22;8.90;;;1.67;;
57233;SDS011;43090;52.604;13.318;2023-05-16T13:39:52;13.05;;;2.03;;
57233;SDS011;43090;52.604;13.318;2023-05-16T13:42:20;9.88;;;1.40;;
57233;SDS011;43090;52.604;13.318;2023-05-16T13:44:47;10.50;;;1.40;;
57233;SDS011;43090;52.604;13.318;2023-05-16T13:47:13;7.93;;;1.50;;
57233;SDS011;43090;52.604;13.318;2023-05-16T13:49:40;16.98;;;2.15;;
57233;SDS011;43090;52.604;13.318;2023-05-16T13:52:06;10.57;;;1.70;;
57233;SDS011;43090;52.604;13.318;2023-05-16T13:54:33;11.65;;;2.25;;
57233;SDS011;43090;52.604;13.318;2023-05-16T14:02:15;7.53;;;1.48;;
57233;SDS011;43090;52.604;13.318;2023-05-16T14:04:41;13.60;;;1.67;;
57233;SDS011;43090;52.604;13.318;2023-05-16T14:07:13;5.82;;;1.92;;
57233;SDS011;43090;52.604;13.318;2023-05-16T14:09:40;11.63;;;2.03;;
57233;SDS011;43090;52.604;13.318;2023-05-16T14:12:07;17.60;;;2.28;;
57233;SDS011;43090;52.604;13.318;2023-05-16T14:14:34;10.48;;;1.75;;
57233;SDS011;43090;52.604;13.318;2023-05-16T14:19:29;9.80;;;1.90;;
57233;SDS011;43090;52.604;13.318;2023-05-16T14:21:56;6.95;;;1.33;;
57233;SDS011;43090;52.604;13.318;2023-05-16T14:24:23;5.63;;;1.40;;
57233;SDS011;43090;52.604;13.318;2023-05-16T14:26:49;6.45;;;1.23;;
57233;SDS011;43090;52.604;13.318;2023-05-16T14:29:23;10.13;;;1.70;;
57233;SDS011;43090;52.604;13.318;2023-05-16T14:31:51;8.02;;;1.17;;
57233;SDS011;43090;52.604;13.318;2023-05-16T14:34:18;8.60;;;1.25;;
57233;SDS011;43090;52.604;13.318;2023-05-16T14:36:44;5.95;;;1.42;;
57233;SDS011;43090;52.604;13.318;2023-05-16T14:39:11;8.23;;;1.35;;
57233;SDS011;43090;52.604;13.318;2023-05-16T14:41:37;9.48;;;1.13;;
57233;SDS011;43090;52.604;13.318;2023-05-16T14:44:04;4.97;;;1.35;;
57233;SDS011;43090;52.604;13.318;2023-05-16T14:46:31;6.68;;;1.25;;
57233;SDS011;43090;52.604;13.318;2023-05-16T14:48:57;9.55;;;1.80;;
57233;SDS011;43090;52.604;13.318;2023-05-16T14:51:24;9.02;;;1.17;;
57233;SDS011;43090;52.604;13.318;2023-05-16T14:53:51;7.50;;;1.52;;
57233;SDS011;43090;52.604;13.318;2023-05-16T14:56:17;7.88;;;1.40;;
57233;SDS011;43090;52.604;13.318;2023-05-16T14:58:44;14.38;;;1.55;;
57233;SDS011;43090;52.604;13.318;2023-05-16T15:01:10;10.25;;;1.55;;
57233;SDS011;43090;52.604;13.318;2023-05-16T15:03:37;6.13;;;1.20;;
57233;SDS011;43090;52.604;13.318;2023-05-16T15:06:20;8.90;;;1.50;;
57233;SDS011;43090;52.604;13.318;2023-05-16T15:08:46;5.55;;;0.88;;
57233;SDS011;43090;52.604;13.318;2023-05-16T15:11:13;8.57;;;1.75;;
57233;SDS011;43090;52.604;13.318;2023-05-16T15:13:40;5.45;;;1.05;;
57233;SDS011;43090;52.604;13.318;2023-05-16T15:16:06;6.68;;;1.88;;
57233;SDS011;43090;52.604;13.318;2023-05-16T15:18:33;7.00;;;1.38;;
57233;SDS011;43090;52.604;13.318;2023-05-16T15:20:59;8.02;;;1.40;;
57233;SDS011;43090;52.604;13.318;2023-05-16T15:23:26;6.68;;;1.10;;
57233;SDS011;43090;52.604;13.318;2023-05-16T15:25:53;10.55;;;1.55;;
57233;SDS011;43090;52.604;13.318;2023-05-16T15:30:48;11.82;;;1.75;;
57233;SDS011;43090;52.604;13.318;2023-05-16T15:33:16;6.03;;;1.23;;
57233;SDS011;43090;52.604;13.318;2023-05-16T15:35:42;3.55;;;0.98;;
57233;SDS011;43090;52.604;13.318;2023-05-16T15:38:09;6.75;;;1.15;;
57233;SDS011;43090;52.604;13.318;2023-05-16T15:40:35;7.70;;;1.38;;
57233;SDS011;43090;52.604;13.318;2023-05-16T15:43:02;9.20;;;1.02;;
57233;SDS011;43090;52.604;13.318;2023-05-16T15:45:29;7.50;;;0.95;;
57233;SDS011;43090;52.604;13.318;2023-05-16T15:47:56;6.18;;;1.10;;
57233;SDS011;43090;52.604;13.318;2023-05-16T15:50:22;4.07;;;1.10;;
57233;SDS011;43090;52.604;13.318;2023-05-16T15:52:49;6.82;;;1.60;;
57233;SDS011;43090;52.604;13.318;2023-05-16T15:55:16;9.88;;;1.45;;
57233;SDS011;43090;52.604;13.318;2023-05-16T15:57:42;13.27;;;1.30;;
57233;SDS011;43090;52.604;13.318;2023-05-16T16:00:09;11.00;;;1.23;;
57233;SDS011;43090;52.604;13.318;2023-05-16T16:02:38;5.78;;;1.15;;
57233;SDS011;43090;52.604;13.318;2023-05-16T16:05:06;11.10;;;1.00;;
57233;SDS011;43090;52.604;13.318;2023-05-16T16:07:33;8.15;;;1.23;;
57233;SDS011;43090;52.604;13.318;2023-05-16T16:10:00;9.57;;;1.13;;
57233;SDS011;43090;52.604;13.318;2023-05-16T16:12:29;6.72;;;1.25;;